Time;durP1;ratioP1;P1;durP2;ratioP2;P2;SDS_P1;SDS_P2;PMS_P1;PMS_P2;Temp;Humidity;BMP_temperature;BMP_pressure;BME280_temperature;BME280_humidity;BME280_pressure;Samples;Min_cycle;Max_cycle;Signal;HPM_P1;HPM_P2
2022/07/30 00:02:18;;;;;;;8.70;6.03;;;15.80;99.90;;;;;;5134519;27;20539;-72
2022/07/30 00:04:44;;;;;;;7.50;6.30;;;15.60;99.90;;;;;;5116638;27;20058;-70
2022/07/30 00:07:11;;;;;;;9.45;6.95;;;15.80;99.90;;;;;;5134744;27;20419;-71
2022/07/30 00:09:37;;;;;;;12.15;6.90;;;15.60;99.90;;;;;;5134680;27;20085;-72
2022/07/30 00:12:03;;;;;;;;;;;15.60;99.90;;;;;;5135089;27;20491;-70
2022/07/30 00:14:29;;;;;;;7.43;5.63;;;15.50;99.90;;;;;;5134455;27;19923;-70
2022/07/30 00:16:55;;;;;;;;;;;15.80;99.90;;;;;;5134621;27;20051;-73
2022/07/30 00:19:20;;;;;;;11.05;7.05;;;15.60;99.90;;;;;;5116009;27;19919;-70
2022/07/30 00:21:46;;;;;;;;;;;15.30;99.90;;;;;;5135120;27;20425;-71
2022/07/30 00:24:12;;;;;;;10.95;7.90;;;15.60;99.90;;;;;;5134440;27;20418;-72
2022/07/30 00:26:37;;;;;;;;;;;15.50;99.90;;;;;;5134993;27;20525;-73
2022/07/30 00:29:04;;;;;;;6.15;4.63;;;15.60;99.90;;;;;;5134055;27;19924;-70
2022/07/30 00:31:30;;;;;;;5.80;4.50;;;15.40;99.90;;;;;;5134141;27;20047;-72
2022/07/30 00:33:56;;;;;;;;;;;15.20;99.90;;;;;;5134967;27;20058;-70
2022/07/30 00:36:21;;;;;;;11.25;6.32;;;15.20;99.90;;;;;;5134382;27;19964;-70
2022/07/30 00:38:47;;;;;;;;;;;14.90;99.90;;;;;;5134708;27;20773;-70
2022/07/30 00:41:13;;;;;;;9.93;5.20;;;14.80;99.90;;;;;;5134109;27;19930;-74
2022/07/30 00:43:38;;;;;;;;;;;14.90;99.90;;;;;;5134351;27;20043;-73
2022/07/30 00:46:04;;;;;;;7.43;5.97;;;14.50;99.90;;;;;;5133830;27;20251;-71
2022/07/30 00:48:30;;;;;;;;;;;14.60;99.90;;;;;;5134648;27;20043;-72
2022/07/30 00:50:55;;;;;;;10.48;7.20;;;14.20;99.90;;;;;;5133900;27;19983;-70
2022/07/30 00:53:21;;;;;;;;;;;14.30;99.90;;;;;;5134050;27;20059;-72
2022/07/30 00:55:47;;;;;;;9.23;6.22;;;14.30;99.90;;;;;;5133926;27;19926;-71
2022/07/30 00:58:12;;;;;;;;;;;14.10;99.90;;;;;;5134019;27;20047;-73
2022/07/30 01:00:38;;;;;;;8.23;7.00;;;14.20;99.90;;;;;;5133717;27;20017;-71
2022/07/30 01:03:03;;;;;;;;;;;14.50;99.90;;;;;;5134148;27;20039;-69
2022/07/30 01:05:30;;;;;;;9.48;7.25;;;14.30;99.90;;;;;;5133919;27;19923;-69
2022/07/30 01:07:55;;;;;;;7.05;6.35;;;14.40;99.90;;;;;;5133547;27;20089;-70
2022/07/30 01:10:21;;;;;;;6.63;5.97;;;14.00;99.90;;;;;;5133387;27;20079;-70
2022/07/30 01:12:47;;;;;;;;;;;14.30;99.90;;;;;;5133707;27;20038;-71
2022/07/30 01:15:13;;;;;;;6.88;6.18;;;14.20;99.90;;;;;;5133345;27;19962;-72
2022/07/30 01:17:39;;;;;;;5.97;5.38;;;13.90;99.90;;;;;;5133651;27;20051;-72
2022/07/30 01:20:12;;;;;;;9.23;5.45;;;14.30;99.90;;;;;;5133458;27;20502;-69
2022/07/30 01:23:15;;;;;;;6.90;6.20;;;14.00;99.90;;;;;;5133624;27;20091;-73
2022/07/30 01:25:55;;;;;;;4.93;4.43;;;14.10;99.90;;;;;;5133224;27;20047;-72
2022/07/30 01:28:25;;;;;;;8.50;6.95;;;14.00;99.90;;;;;;5133079;27;20043;-72
2022/07/30 01:30:54;;;;;;;13.38;11.68;;;14.50;99.90;;;;;;5114589;27;20376;-71
2022/07/30 01:33:22;;;;;;;14.75;11.95;;;13.60;99.90;;;;;;5133117;27;20126;-71
2022/07/30 01:35:50;;;;;;;13.98;8.32;;;13.70;99.90;;;;;;5133144;27;20108;-70
2022/07/30 01:38:20;;;;;;;16.17;7.30;;;14.70;99.90;;;;;;5133283;27;20051;-70
2022/07/30 01:40:48;;;;;;;32.95;8.15;;;13.70;99.90;;;;;;5133298;27;20090;-72
2022/07/30 01:43:15;;;;;;;14.27;6.95;;;13.70;99.90;;;;;;5132992;27;20051;-72
2022/07/30 01:45:41;;;;;;;6.97;6.28;;;13.70;99.90;;;;;;5133023;27;20087;-71
2022/07/30 01:48:10;;;;;;;7.28;6.43;;;13.60;99.90;;;;;;5133092;27;20050;-70
2022/07/30 01:50:37;;;;;;;10.77;7.80;;;13.70;99.90;;;;;;5132698;27;20054;-71
2022/07/30 01:53:04;;;;;;;8.68;7.20;;;13.80;99.90;;;;;;5132936;27;20134;-72
2022/07/30 01:55:34;;;;;;;8.88;7.57;;;13.50;99.90;;;;;;5114622;27;20055;-72
2022/07/30 01:58:00;;;;;;;10.27;7.53;;;14.50;99.90;;;;;;5132656;27;20047;-73
2022/07/30 02:00:29;;;;;;;11.25;7.55;;;13.30;99.90;;;;;;5132648;27;20126;-72
2022/07/30 02:02:55;;;;;;;30.90;8.55;;;14.00;99.90;;;;;;5132660;27;20102;-73
2022/07/30 02:05:22;;;;;;;59.13;8.85;;;13.40;99.90;;;;;;5132621;27;20510;-72
2022/07/30 02:07:56;;;;;;;29.92;9.85;;;13.50;99.90;;;;;;5114413;28;20504;-70
2022/07/30 02:10:50;;;;;;;55.03;8.90;;;13.60;99.90;;;;;;5132770;27;20047;-71
2022/07/30 02:13:20;;;;;;;120.78;10.35;;;13.50;99.90;;;;;;5129631;28;20173;-72
2022/07/30 02:15:55;;;;;;;20.92;6.82;;;13.40;99.90;;;;;;5132497;28;20106;-72
2022/07/30 02:18:30;;;;;;;35.95;7.85;;;13.50;99.90;;;;;;5114414;28;20051;-72
2022/07/30 02:21:09;;;;;;;14.90;7.18;;;13.30;99.90;;;;;;5132641;28;20047;-74
2022/07/30 02:23:40;;;;;;;37.80;7.45;;;13.60;99.90;;;;;;5132649;28;20065;-74
2022/07/30 02:26:08;;;;;;;6.93;6.22;;;13.50;99.90;;;;;;5132176;28;20117;-72
2022/07/30 02:28:38;;;;;;;8.10;7.28;;;14.60;99.90;;;;;;5132629;28;20134;-72
2022/07/30 02:31:07;;;;;;;8.48;5.97;;;13.60;99.90;;;;;;5132588;28;20051;-74
2022/07/30 02:33:40;;;;;;;22.48;7.50;;;13.50;99.90;;;;;;5132335;28;20078;-72
2022/07/30 02:36:07;;;;;;;8.68;6.93;;;13.20;99.90;;;;;;5097444;28;20125;-72
2022/07/30 02:38:35;;;;;;;52.33;8.82;;;13.20;99.90;;;;;;5132261;28;20050;-71
2022/07/30 02:41:02;;;;;;;19.65;7.20;;;13.30;99.90;;;;;;5133866;27;20043;-73
2022/07/30 02:43:29;;;;;;;9.25;7.32;;;13.40;99.90;;;;;;5136388;27;20044;-73
2022/07/30 02:45:56;;;;;;;26.63;8.73;;;13.90;99.90;;;;;;5136432;27;20062;-73
2022/07/30 02:48:26;;;;;;;17.77;7.88;;;13.20;99.90;;;;;;5136482;27;20055;-72
2022/07/30 02:50:54;;;;;;;18.17;8.63;;;13.30;99.90;;;;;;5136304;27;20547;-72
2022/07/30 02:53:21;;;;;;;13.07;9.27;;;13.40;99.90;;;;;;5136285;27;20066;-72
2022/07/30 02:55:49;;;;;;;11.00;9.57;;;13.30;99.90;;;;;;5136006;27;20422;-71
2022/07/30 02:58:19;;;;;;;30.55;10.57;;;13.40;99.90;;;;;;5136308;27;20051;-72
2022/07/30 03:00:45;;;;;;;12.73;9.35;;;13.40;99.90;;;;;;5118066;27;20053;-73
2022/07/30 03:03:12;;;;;;;10.60;8.70;;;14.10;99.90;;;;;;5136094;27;20088;-72
2022/07/30 03:05:40;;;;;;;13.07;9.90;;;13.10;99.90;;;;;;5135937;27;20448;-71
2022/07/30 03:08:07;;;;;;;15.80;9.77;;;13.20;99.90;;;;;;5136150;27;20047;-71
2022/07/30 03:10:34;;;;;;;11.02;8.95;;;12.90;99.90;;;;;;5135866;27;20051;-70
2022/07/30 03:13:04;;;;;;;10.48;9.38;;;13.10;99.90;;;;;;5135893;27;20047;-70
2022/07/30 03:15:32;;;;;;;12.57;9.77;;;13.10;99.90;;;;;;5135984;27;20107;-71
2022/07/30 03:17:58;;;;;;;10.25;8.65;;;13.30;99.90;;;;;;5135789;27;20122;-72
2022/07/30 03:20:28;;;;;;;9.70;8.70;;;13.10;99.90;;;;;;5117284;27;20099;-72
2022/07/30 03:22:57;;;;;;;12.23;8.30;;;13.40;99.90;;;;;;5117508;27;20043;-72
2022/07/30 03:25:27;;;;;;;9.60;8.55;;;13.50;99.90;;;;;;5135956;27;20054;-72
2022/07/30 03:27:56;;;;;;;11.77;10.23;;;14.90;99.90;;;;;;5117789;27;20055;-71
2022/07/30 03:30:24;;;;;;;12.75;10.52;;;13.40;99.90;;;;;;5135769;27;20039;-71
2022/07/30 03:32:52;;;;;;;12.05;9.88;;;13.30;99.90;;;;;;5135583;27;20047;-73
2022/07/30 03:35:26;;;;;;;12.68;10.73;;;13.40;99.90;;;;;;5135521;27;20047;-72
2022/07/30 03:37:53;;;;;;;22.05;10.88;;;13.30;99.90;;;;;;5135494;27;20088;-72
2022/07/30 03:40:20;;;;;;;14.55;11.02;;;13.50;99.90;;;;;;5135303;27;20043;-72
2022/07/30 03:42:47;;;;;;;13.93;10.32;;;13.40;99.90;;;;;;5135396;27;20043;-73
2022/07/30 03:45:13;;;;;;;13.25;9.43;;;13.20;99.90;;;;;;5135456;27;20046;-72
2022/07/30 03:47:40;;;;;;;;;;;13.20;99.90;;;;;;5117369;27;20073;-71
2022/07/30 03:50:08;;;;;;;11.73;8.70;;;13.10;99.90;;;;;;5135415;27;20380;-72
2022/07/30 03:52:41;;;;;;;13.77;10.60;;;12.90;99.90;;;;;;5133449;27;20515;-71
2022/07/30 03:55:09;;;;;;;12.35;10.00;;;13.00;99.90;;;;;;5135136;27;20054;-72
2022/07/30 03:57:35;;;;;;;10.88;9.70;;;13.40;99.90;;;;;;5134923;27;20043;-72
2022/07/30 04:00:05;;;;;;;14.35;10.30;;;12.80;99.90;;;;;;5134855;27;20053;-72
2022/07/30 04:02:31;;;;;;;12.27;10.63;;;13.00;99.90;;;;;;5135071;27;20150;-71
2022/07/30 04:04:57;;;;;;;14.63;11.30;;;13.20;99.90;;;;;;5135133;27;20071;-71
2022/07/30 04:07:22;;;;;;;10.40;8.88;;;12.80;99.90;;;;;;5134679;27;20054;-71
2022/07/30 04:09:48;;;;;;;13.80;10.13;;;13.20;99.90;;;;;;5134803;27;20043;-70
2022/07/30 04:12:14;;;;;;;23.92;11.50;;;13.00;99.90;;;;;;5116357;27;20043;-71
2022/07/30 04:14:42;;;;;;;12.27;9.32;;;13.20;99.90;;;;;;5116481;27;20047;-71
2022/07/30 04:17:25;;;;;;;14.38;9.77;;;12.80;99.90;;;;;;5116378;27;20428;-73
2022/07/30 04:19:55;;;;;;;11.80;9.23;;;13.10;99.90;;;;;;5134780;27;20104;-71
2022/07/30 04:22:26;;;;;;;13.75;9.40;;;13.00;99.90;;;;;;5134335;27;20103;-71
2022/07/30 04:24:53;;;;;;;16.75;9.00;;;13.50;99.90;;;;;;5134583;27;20050;-71
2022/07/30 04:27:20;;;;;;;17.77;10.48;;;13.00;99.90;;;;;;5134464;27;20402;-72
2022/07/30 04:29:46;;;;;;;13.73;9.98;;;13.00;99.90;;;;;;5134581;27;20115;-72
2022/07/30 04:32:12;;;;;;;;;;;13.20;99.90;;;;;;5134725;27;20090;-71
2022/07/30 04:34:51;;;;;;;12.95;8.65;;;12.90;99.90;;;;;;5134188;27;19942;-71
2022/07/30 04:37:19;;;;;;;15.73;8.63;;;12.90;99.90;;;;;;5134111;27;20083;-71
2022/07/30 04:39:44;;;;;;;13.20;10.38;;;12.90;99.90;;;;;;5134021;27;20075;-71
2022/07/30 04:42:11;;;;;;;20.55;10.75;;;13.00;99.90;;;;;;5134421;27;20134;-71
2022/07/30 04:44:36;;;;;;;;;;;13.20;99.90;;;;;;5134643;27;20054;-71
2022/07/30 04:47:03;;;;;;;9.98;8.00;;;12.40;99.90;;;;;;5134217;27;19919;-71
2022/07/30 04:49:30;;;;;;;16.63;9.63;;;12.90;99.90;;;;;;5133988;27;20185;-71
2022/07/30 04:51:57;;;;;;;17.05;9.77;;;12.70;99.90;;;;;;5133365;27;20058;-71
2022/07/30 04:54:24;;;;;;;19.42;12.38;;;12.50;99.90;;;;;;5133889;27;20082;-71
2022/07/30 04:56:51;;;;;;;17.67;12.25;;;12.70;99.90;;;;;;5134056;27;20131;-71
2022/07/30 04:59:17;;;;;;;13.95;12.07;;;13.00;99.90;;;;;;5134005;27;20067;-71
2022/07/30 05:01:47;;;;;;;16.55;12.35;;;12.90;99.90;;;;;;5133837;27;20122;-71
2022/07/30 05:04:14;;;;;;;13.65;11.23;;;13.20;99.90;;;;;;5133638;27;20039;-72
2022/07/30 05:06:41;;;;;;;14.63;11.88;;;13.40;99.90;;;;;;5133267;27;20039;-71
2022/07/30 05:09:07;;;;;;;15.68;13.30;;;13.40;99.90;;;;;;5133915;27;20482;-71
2022/07/30 05:11:33;;;;;;;19.20;13.63;;;13.50;99.90;;;;;;5133587;27;20135;-71
2022/07/30 05:13:59;;;;;;;21.15;14.35;;;13.30;99.90;;;;;;5133379;27;20514;-71
2022/07/30 05:16:25;;;;;;;22.10;16.15;;;13.80;99.90;;;;;;5115536;27;20043;-71
2022/07/30 05:18:51;;;;;;;22.90;16.00;;;14.00;99.90;;;;;;5133579;27;20047;-71
2022/07/30 05:21:16;;;;;;;24.00;17.17;;;13.80;99.90;;;;;;5133364;27;20043;-73
2022/07/30 05:23:42;;;;;;;24.67;18.65;;;14.30;99.90;;;;;;5115014;27;20039;-71
2022/07/30 05:26:08;;;;;;;26.17;20.15;;;13.80;99.90;;;;;;5133607;27;20456;-72
2022/07/30 05:28:33;;;;;;;;;;;14.20;99.90;;;;;;5133721;27;20055;-72
2022/07/30 05:30:59;;;;;;;31.15;19.90;;;14.10;99.90;;;;;;5114959;27;19970;-72
2022/07/30 05:33:24;;;;;;;;;;;14.30;99.90;;;;;;5133633;27;20043;-72
2022/07/30 05:35:50;;;;;;;35.42;24.02;;;14.60;99.90;;;;;;5132733;27;20371;-71
2022/07/30 05:38:16;;;;;;;;;;;14.40;99.90;;;;;;5133611;27;20047;-71
2022/07/30 05:40:43;;;;;;;32.67;24.55;;;14.60;99.90;;;;;;5133223;27;19923;-72
2022/07/30 05:43:09;;;;;;;32.20;25.23;;;14.50;99.90;;;;;;5133102;27;20047;-72
2022/07/30 05:45:35;;;;;;;33.45;24.65;;;14.90;99.90;;;;;;5133016;27;20242;-72
2022/07/30 05:48:01;;;;;;;32.88;25.63;;;14.80;99.90;;;;;;5132757;27;20130;-72
2022/07/30 05:50:26;;;;;;;;;;;15.10;99.90;;;;;;5133283;27;20049;-72
2022/07/30 05:52:52;;;;;;;36.08;26.15;;;15.00;99.90;;;;;;5132649;27;19923;-73
2022/07/30 05:55:18;;;;;;;;;;;15.50;99.90;;;;;;5133431;27;20092;-72
2022/07/30 05:57:44;;;;;;;41.63;26.73;;;15.60;99.90;;;;;;5132903;27;20395;-74
2022/07/30 06:00:10;;;;;;;;;;;15.50;99.90;;;;;;5133373;27;20043;-74
2022/07/30 06:02:38;;;;;;;32.42;24.10;;;15.20;99.90;;;;;;5132481;27;19972;-75
2022/07/30 06:05:03;;;;;;;33.42;24.02;;;15.70;99.90;;;;;;5132601;27;20047;-73
2022/07/30 06:07:29;;;;;;;36.25;25.17;;;16.10;99.90;;;;;;5114449;27;20058;-74
2022/07/30 06:09:58;;;;;;;;;;;16.30;99.90;;;;;;5133247;27;20078;-74
2022/07/30 06:12:26;;;;;;;31.85;21.98;;;16.20;99.90;;;;;;5132499;27;20336;-73
2022/07/30 06:14:51;;;;;;;34.20;20.70;;;16.30;99.90;;;;;;5132311;27;20086;-75
2022/07/30 06:17:17;;;;;;;27.73;19.67;;;16.10;99.90;;;;;;5132133;28;20093;-75
2022/07/30 06:19:43;;;;;;;;;;;16.70;99.90;;;;;;5114551;28;20395;-75
2022/07/30 06:22:08;;;;;;;26.15;18.95;;;16.60;99.90;;;;;;5132827;28;19965;-75
2022/07/30 06:24:34;;;;;;;;;;;16.80;99.90;;;;;;5132966;28;20043;-75
2022/07/30 06:26:59;;;;;;;25.10;18.08;;;16.90;99.90;;;;;;5132755;28;19970;-75
2022/07/30 06:29:25;;;;;;;;;;;17.20;99.90;;;;;;5114590;28;20043;-75
2022/07/30 06:31:51;;;;;;;18.95;15.18;;;18.30;99.90;;;;;;5097112;28;20049;-74
2022/07/30 06:34:16;;;;;;;;;;;17.40;99.90;;;;;;5132800;28;20086;-75
2022/07/30 06:36:42;;;;;;;26.20;14.55;;;17.60;99.90;;;;;;5132658;28;19923;-75
2022/07/30 06:39:07;;;;;;;;;;;17.80;99.90;;;;;;5133131;28;20058;-74
2022/07/30 06:41:33;;;;;;;24.17;14.55;;;17.80;99.90;;;;;;5132374;28;20132;-75
2022/07/30 06:43:58;;;;;;;;;;;18.00;99.90;;;;;;5132936;28;20505;-76
2022/07/30 06:46:24;;;;;;;21.38;12.80;;;18.10;99.90;;;;;;5132080;28;19920;-74
2022/07/30 06:48:50;;;;;;;;;;;18.10;99.90;;;;;;5132745;28;20043;-75
2022/07/30 06:51:16;;;;;;;22.10;13.10;;;18.60;99.90;;;;;;5132345;28;19925;-75
2022/07/30 06:53:44;;;;;;;20.38;11.50;;;18.50;99.90;;;;;;5132272;28;20055;-74
2022/07/30 06:56:11;;;;;;;19.42;11.98;;;18.60;99.90;;;;;;5132371;28;20100;-74
2022/07/30 06:58:37;;;;;;;24.42;10.02;;;18.80;99.90;;;;;;5132292;28;20086;-73
2022/07/30 07:01:03;;;;;;;18.52;9.05;;;19.20;99.90;;;;;;5132119;28;20489;-73
2022/07/30 07:03:28;;;;;;;17.33;9.32;;;18.90;99.90;;;;;;5132085;28;20071;-76
2022/07/30 07:05:54;;;;;;;;;;;19.20;99.90;;;;;;5114382;28;20047;-75
2022/07/30 07:08:19;;;;;;;14.90;8.75;;;19.40;99.90;;;;;;5132197;28;20031;-75
2022/07/30 07:10:45;;;;;;;15.55;8.93;;;19.60;99.90;;;;;;5132298;28;20045;-76
2022/07/30 07:13:11;;;;;;;15.18;8.68;;;19.60;99.90;;;;;;5132214;28;20039;-76
2022/07/30 07:15:37;;;;;;;14.35;7.97;;;19.90;99.90;;;;;;5131791;28;20047;-76
2022/07/30 07:18:03;;;;;;;17.83;7.35;;;19.60;99.90;;;;;;5132081;28;20093;-76
2022/07/30 07:20:28;;;;;;;11.55;6.55;;;20.00;99.90;;;;;;5113660;28;20487;-76
2022/07/30 07:22:54;;;;;;;12.88;6.68;;;20.00;99.90;;;;;;5132287;28;20047;-76
2022/07/30 07:25:20;;;;;;;11.20;6.10;;;20.20;99.90;;;;;;5131982;28;20046;-76
2022/07/30 07:27:45;;;;;;;16.13;6.18;;;19.80;99.90;;;;;;5133123;27;20051;-76
2022/07/30 07:30:11;;;;;;;23.30;6.82;;;19.80;99.90;;;;;;5117237;27;20122;-74
2022/07/30 07:32:37;;;;;;;15.02;6.70;;;20.20;99.90;;;;;;5135608;27;20050;-77
2022/07/30 07:35:04;;;;;;;14.95;6.32;;;20.10;99.90;;;;;;5135474;27;20047;-76
2022/07/30 07:37:29;;;;;;;12.43;6.18;;;20.40;99.90;;;;;;5135633;27;20054;-75
2022/07/30 07:39:55;;;;;;;10.90;6.07;;;20.30;99.90;;;;;;5135342;27;20043;-76
2022/07/30 07:42:21;;;;;;;8.23;5.65;;;20.30;99.90;;;;;;5117075;27;20046;-76
2022/07/30 07:44:46;;;;;;;13.07;6.65;;;20.50;99.90;;;;;;5135021;27;20039;-76
2022/07/30 07:47:12;;;;;;;9.75;5.68;;;20.30;99.90;;;;;;5135275;27;20085;-76
2022/07/30 07:49:38;;;;;;;10.70;5.65;;;20.80;99.90;;;;;;5135174;27;20062;-75
2022/07/30 07:52:04;;;;;;;13.18;5.30;;;20.70;99.90;;;;;;5116506;27;20061;-76
2022/07/30 07:54:29;;;;;;;9.45;4.82;;;20.50;99.90;;;;;;5135271;27;20047;-75
2022/07/30 07:56:55;;;;;;;13.93;4.90;;;20.40;99.90;;;;;;5135010;27;20050;-76
2022/07/30 07:59:21;;;;;;;16.38;6.18;;;20.30;99.90;;;;;;5134774;27;20051;-74
2022/07/30 08:01:47;;;;;;;9.95;5.00;;;20.50;99.90;;;;;;5135022;27;20161;-74
2022/07/30 08:04:13;;;;;;;10.27;5.82;;;21.10;99.90;;;;;;5116501;27;20090;-76
2022/07/30 08:06:39;;;;;;;11.40;5.32;;;21.00;99.90;;;;;;5135206;27;20046;-76
2022/07/30 08:09:04;;;;;;;10.23;5.95;;;21.00;99.90;;;;;;5134928;27;20082;-74
2022/07/30 08:11:30;;;;;;;10.77;5.18;;;20.30;99.90;;;;;;5134983;27;20461;-76
2022/07/30 08:13:56;;;;;;;12.25;5.55;;;20.70;99.90;;;;;;5134543;27;20046;-76
2022/07/30 08:16:22;;;;;;;9.50;5.05;;;20.50;99.90;;;;;;5134685;27;20065;-73
2022/07/30 08:18:48;;;;;;;15.50;5.28;;;20.50;99.90;;;;;;5134579;27;20046;-76
2022/07/30 08:21:14;;;;;;;11.07;6.28;;;20.80;99.90;;;;;;5134859;27;20058;-76
2022/07/30 08:23:40;;;;;;;10.88;5.13;;;20.80;99.90;;;;;;5134837;27;20048;-76
2022/07/30 08:26:06;;;;;;;10.02;5.30;;;20.90;99.90;;;;;;5134663;27;20047;-76
2022/07/30 08:28:32;;;;;;;10.45;5.20;;;20.50;99.90;;;;;;5116269;27;20697;-76
2022/07/30 08:30:57;;;;;;;9.75;4.72;;;20.50;99.90;;;;;;5134401;27;20053;-75
2022/07/30 08:33:23;;;;;;;13.32;4.80;;;20.80;99.90;;;;;;5134207;27;20252;-73
2022/07/30 08:35:49;;;;;;;10.65;4.70;;;20.70;99.90;;;;;;5134275;27;20047;-73
2022/07/30 08:38:15;;;;;;;10.50;4.82;;;20.40;99.90;;;;;;5133988;27;20093;-75
2022/07/30 08:40:40;;;;;;;10.73;4.63;;;20.30;99.90;;;;;;5116114;27;20043;-76
2022/07/30 08:43:07;;;;;;;6.90;4.38;;;20.30;99.90;;;;;;5133920;27;20035;-73
2022/07/30 08:45:34;;;;;;;12.57;4.35;;;20.60;99.90;;;;;;5134171;27;20035;-76
2022/07/30 08:48:00;;;;;;;6.60;4.20;;;21.10;99.90;;;;;;5115790;27;20051;-75
2022/07/30 08:50:28;;;;;;;9.27;4.63;;;20.90;99.90;;;;;;5134386;27;20383;-76
2022/07/30 08:52:55;;;;;;;9.18;4.22;;;21.30;99.90;;;;;;5133787;27;20201;-73
2022/07/30 08:55:24;;;;;;;12.18;4.47;;;21.40;99.90;;;;;;5133975;27;20132;-74
2022/07/30 08:57:50;;;;;;;11.10;4.32;;;21.30;99.90;;;;;;5115576;27;20086;-74
2022/07/30 09:00:17;;;;;;;16.17;4.90;;;21.70;99.90;;;;;;5133921;27;20085;-72
2022/07/30 09:02:43;;;;;;;10.40;4.32;;;21.80;99.90;;;;;;5134375;27;20383;-74
2022/07/30 09:05:10;;;;;;;10.73;4.15;;;22.00;99.90;;;;;;5133981;27;20047;-72
2022/07/30 09:07:36;;;;;;;8.73;4.20;;;21.70;99.90;;;;;;5134039;27;20057;-73
2022/07/30 09:10:07;;;;;;;8.80;4.35;;;21.60;99.90;;;;;;5133710;27;20088;-75
2022/07/30 09:12:36;;;;;;;10.40;4.43;;;22.00;99.90;;;;;;5133424;27;20046;-75
2022/07/30 09:15:07;;;;;;;9.88;4.30;;;22.10;99.90;;;;;;5133447;27;20058;-74
2022/07/30 09:17:56;;;;;;;8.45;3.88;;;21.90;99.90;;;;;;5134035;27;20054;-75
2022/07/30 09:20:30;;;;;;;9.85;4.10;;;22.00;99.90;;;;;;5133691;27;20047;-75
2022/07/30 09:22:57;;;;;;;10.40;4.43;;;21.80;99.90;;;;;;5115149;27;20523;-74
2022/07/30 09:25:39;;;;;;;10.85;4.10;;;22.20;99.90;;;;;;5133373;27;20047;-76
2022/07/30 09:28:08;;;;;;;11.93;4.20;;;21.80;99.90;;;;;;5133348;27;20047;-75
2022/07/30 09:31:03;;;;;;;8.15;3.90;;;22.10;99.90;;;;;;5133445;27;20452;-75
2022/07/30 09:33:34;;;;;;;9.43;4.40;;;22.30;99.90;;;;;;5115285;27;20487;-72
2022/07/30 09:36:00;;;;;;;11.35;4.10;;;22.30;99.90;;;;;;5133016;27;20380;-74
2022/07/30 09:38:26;;;;;;;11.75;4.10;;;22.60;99.90;;;;;;5133398;27;20087;-74
2022/07/30 09:40:57;;;;;;;16.42;4.72;;;22.60;99.90;;;;;;5132836;27;20467;-73
2022/07/30 09:43:22;;;;;;;7.35;4.05;;;22.70;99.90;;;;;;5133175;27;20054;-74
2022/07/30 09:45:54;;;;;;;9.95;4.25;;;22.50;99.90;;;;;;5133054;27;20039;-76
2022/07/30 09:48:26;;;;;;;9.52;4.22;;;22.50;99.90;;;;;;5132977;27;20566;-76
2022/07/30 09:50:53;;;;;;;10.57;4.40;;;22.80;99.90;;;;;;5114092;27;20050;-75
2022/07/30 09:53:23;;;;;;;8.68;4.57;;;23.00;99.90;;;;;;5114271;27;20145;-73
2022/07/30 09:55:49;;;;;;;10.48;4.15;;;23.00;99.90;;;;;;5114520;27;20047;-75
2022/07/30 09:58:15;;;;;;;17.65;4.55;;;22.80;99.90;;;;;;5132769;27;20502;-74
2022/07/30 10:00:41;;;;;;;7.00;4.10;;;22.90;99.90;;;;;;5114530;27;20051;-74
2022/07/30 10:03:17;;;;;;;6.22;3.90;;;22.40;99.90;;;;;;5132783;27;20091;-77
2022/07/30 10:05:54;;;;;;;10.25;4.72;;;22.20;99.90;;;;;;5133046;27;20058;-75
2022/07/30 10:08:36;;;;;;;11.07;5.22;;;22.50;99.90;;;;;;5132973;27;20047;-76
2022/07/30 10:11:02;;;;;;;14.27;4.28;;;22.50;99.90;;;;;;5132483;27;20498;-76
2022/07/30 10:13:28;;;;;;;8.50;4.03;;;24.20;99.90;;;;;;5114044;28;20084;-75
2022/07/30 10:15:54;;;;;;;7.53;3.92;;;22.60;99.90;;;;;;5133137;28;20107;-73
2022/07/30 10:18:20;;;;;;;12.90;4.43;;;22.60;99.90;;;;;;5132760;28;20054;-74
2022/07/30 10:20:46;;;;;;;11.13;3.35;;;22.80;99.90;;;;;;5132818;28;20126;-75
2022/07/30 10:23:12;;;;;;;9.50;4.10;;;22.60;99.90;;;;;;5132683;28;20449;-75
2022/07/30 10:25:38;;;;;;;13.07;4.03;;;22.90;99.90;;;;;;5114003;28;20149;-75
2022/07/30 10:28:05;;;;;;;10.25;4.22;;;22.80;99.90;;;;;;5132438;28;20051;-75
2022/07/30 10:30:32;;;;;;;7.85;3.97;;;23.00;99.90;;;;;;5132749;28;20062;-74
2022/07/30 10:32:58;;;;;;;10.48;4.05;;;23.00;99.90;;;;;;5132392;28;20051;-75
2022/07/30 10:35:25;;;;;;;8.45;4.03;;;22.80;99.90;;;;;;5114360;28;20051;-74
2022/07/30 10:37:51;;;;;;;10.98;4.55;;;22.90;99.90;;;;;;5132635;28;20058;-74
2022/07/30 10:40:25;;;;;;;7.50;3.65;;;23.00;99.90;;;;;;5132200;28;20042;-73
2022/07/30 10:43:39;;;;;;;7.20;3.70;;;22.70;99.90;;;;;;5132450;28;20043;-74
2022/07/30 10:46:12;;;;;;;5.88;3.40;;;22.60;99.90;;;;;;5058593;28;20053;-74
2022/07/30 10:48:38;;;;;;;11.68;3.70;;;22.70;99.90;;;;;;5132411;28;20043;-75
2022/07/30 10:51:04;;;;;;;9.15;3.78;;;22.60;99.90;;;;;;5132297;28;20050;-74
2022/07/30 10:53:44;;;;;;;10.18;3.55;;;22.50;99.90;;;;;;5131835;28;20054;-74
2022/07/30 10:56:21;;;;;;;9.77;4.40;;;22.20;99.90;;;;;;5132854;28;20054;-73
2022/07/30 10:58:57;;;;;;;10.32;3.60;;;22.20;99.90;;;;;;5132318;28;20050;-73
2022/07/30 11:01:22;;;;;;;8.75;3.40;;;22.80;99.90;;;;;;5097509;27;20108;-75
2022/07/30 11:04:27;;;;;;;7.25;3.63;;;22.60;99.90;;;;;;5136436;27;20039;-74
2022/07/30 11:07:24;;;;;;;10.90;3.95;;;22.80;99.90;;;;;;5035707;28;20437;-73
2022/07/30 11:09:55;;;;;;;13.47;3.67;;;23.20;99.90;;;;;;5136104;27;20074;-74
2022/07/30 11:12:46;;;;;;;7.97;3.90;;;22.80;99.90;;;;;;5135911;27;20483;-71
2022/07/30 11:15:15;;;;;;;7.22;3.60;;;22.70;99.90;;;;;;5136055;27;20073;-72
2022/07/30 11:18:03;;;;;;;7.55;3.55;;;22.90;99.90;;;;;;5136004;27;20082;-72
2022/07/30 11:20:30;;;;;;;7.28;3.50;;;22.80;99.90;;;;;;5135751;27;20047;-74
2022/07/30 11:23:28;;;;;;;9.13;2.90;;;23.00;99.90;;;;;;5135907;27;20513;-75
2022/07/30 11:25:54;;;;;;;6.32;3.38;;;23.40;99.90;;;;;;5135227;27;20047;-74
2022/07/30 11:28:44;;;;;;;8.02;3.10;;;23.60;99.90;;;;;;5135686;27;20169;-71
2022/07/30 11:31:31;;;;;;;10.75;3.10;;;23.50;99.90;;;;;;5135987;27;20500;-74
2022/07/30 11:34:18;;;;;;;6.85;3.42;;;23.30;99.90;;;;;;5135551;27;20126;-73
2022/07/30 11:37:13;;;;;;;4.72;2.90;;;23.30;99.90;;;;;;5135229;27;20051;-74
2022/07/30 11:39:57;;;;;;;10.70;4.18;;;23.00;99.90;;;;;;5133464;27;20059;-74
2022/07/30 11:42:26;;;;;;;7.63;3.38;;;23.20;99.90;;;;;;5135370;27;20050;-73
2022/07/30 11:44:52;;;;;;;6.38;3.33;;;22.80;99.90;;;;;;5117006;27;20039;-75
2022/07/30 11:47:18;;;;;;;8.35;3.50;;;23.20;99.90;;;;;;5135277;27;20054;-71
2022/07/30 11:49:47;;;;;;;8.27;3.60;;;23.30;99.90;;;;;;5135515;27;20134;-74
2022/07/30 11:52:24;;;;;;;6.55;3.17;;;23.60;99.90;;;;;;5116630;27;20081;-74
2022/07/30 11:54:53;;;;;;;11.27;3.72;;;23.50;99.90;;;;;;5135404;27;20414;-74
2022/07/30 11:57:19;;;;;;;8.27;3.00;;;23.20;99.90;;;;;;5135265;27;20055;-74
2022/07/30 11:59:55;;;;;;;6.95;3.00;;;23.40;99.90;;;;;;5116660;27;20529;-74
2022/07/30 12:02:27;;;;;;;8.52;3.75;;;23.90;99.90;;;;;;5135244;27;20122;-75
2022/07/30 12:04:53;;;;;;;8.60;3.42;;;23.90;99.90;;;;;;5117126;27;20126;-74
2022/07/30 12:07:25;;;;;;;6.80;2.78;;;23.70;99.90;;;;;;5134592;27;20604;-74
2022/07/30 12:09:50;;;;;;;5.80;3.00;;;23.10;99.90;;;;;;5135103;27;20395;-73
2022/07/30 12:12:23;;;;;;;7.47;2.85;;;23.50;99.90;;;;;;5134760;27;20039;-73
2022/07/30 12:14:50;;;;;;;8.73;3.00;;;23.50;99.90;;;;;;5134333;27;20046;-70
2022/07/30 12:17:16;;;;;;;6.82;2.80;;;23.10;99.90;;;;;;5134739;27;20047;-73
2022/07/30 12:19:45;;;;;;;7.55;3.50;;;22.80;99.90;;;;;;5116090;27;20047;-73
2022/07/30 12:22:11;;;;;;;8.23;3.10;;;22.80;99.90;;;;;;5134820;27;20093;-74
2022/07/30 12:24:37;;;;;;;6.45;3.35;;;22.90;99.90;;;;;;5116186;27;20178;-74
2022/07/30 12:27:04;;;;;;;6.15;3.50;;;22.70;99.90;;;;;;5116235;27;20486;-72
2022/07/30 12:29:31;;;;;;;5.60;2.88;;;23.20;99.90;;;;;;5134606;27;20051;-72
2022/07/30 12:31:57;;;;;;;7.53;2.75;;;23.30;99.90;;;;;;5134502;27;20051;-73
2022/07/30 12:34:25;;;;;;;8.48;2.60;;;23.60;99.90;;;;;;5134206;27;20372;-69
2022/07/30 12:36:51;;;;;;;4.97;2.85;;;23.40;99.90;;;;;;5134524;27;20050;-73
2022/07/30 12:39:26;;;;;;;5.45;2.53;;;23.80;99.90;;;;;;5134364;27;20051;-73
2022/07/30 12:41:57;;;;;;;7.05;2.78;;;23.70;99.90;;;;;;5134809;27;20053;-74
2022/07/30 12:44:45;;;;;;;5.47;2.30;;;23.80;99.90;;;;;;5134783;27;20054;-74
2022/07/30 12:47:20;;;;;;;10.15;3.00;;;23.90;99.90;;;;;;5134627;27;20086;-74
2022/07/30 12:49:46;;;;;;;5.38;2.70;;;23.70;99.90;;;;;;5133981;27;20047;-73
2022/07/30 12:52:26;;;;;;;5.82;2.80;;;23.20;99.90;;;;;;5133823;27;20606;-75
2022/07/30 12:55:04;;;;;;;8.70;2.50;;;23.40;99.90;;;;;;5134290;27;20054;-75
2022/07/30 12:57:54;;;;;;;4.68;2.40;;;24.10;99.90;;;;;;5134063;27;20126;-75